Terminal Aerodrome Forecast
Issued by NWS Wilmington, NC

Home | Current Version | Previous Version | Text Only | Print | Product List | Glossary On
Versions: 1 2 3 4 5 6 7 8 9 10 11 12 13 14 15 16 17 18 19 20 21 22 23 24 25 26 27 28 29
228
FTUS42 KILM 271138
TAFFLO
TAF
KFLO 271138Z 2712/2812 15003KT P6SM SCT020 BKN250
     FM271500 17008KT P6SM VCSH BKN035
     FM280000 14006KT P6SM VCSH BKN030
      TEMPO 2804/2808 3SM SHRA OVC010
     FM280800 13006KT 3SM SHRA OVC006=

USA.gov is the U.S. government's official web portal to all federal, state and local government web resources and services.